Waverly, Kentucky
Current Conditions -  °F | °C
As of 3:15 PM on Sunday 23 Nov 2014 (Local Time) from KEHR Reporting Station
Overcast Overcast  
Wind Chill: 55°   Ceiling: 600
Heat Index: 55°   Visibility: 4mi
Dew Point: 54°   Wind: 7mph
Humidity: 94%   Direction: 120°ESE
Pressure: 29.41"   Gusts: NA
Location:  37.71°N, 87.81°W
Report Text: KEHR 232115Z AUTO 12006KT 4SM BKN006 BKN012 OVC027 13/12 A2941 RMK AO1 P0006
Loading
Personal Weather Stations






























Interactive Weather Map New forecast layout! Learn more

10-Day Weather Forecast

Advertisements
Track Severe Weather on mobile